sensor_id;sensor_type;location;lat;lon;timestamp;temperature;humidity
58865;DHT22;45702;52.982;6.658;2023-10-08T00:01:17;14.10;99.90
58865;DHT22;45702;52.982;6.658;2023-10-08T00:03:43;14.10;99.90
58865;DHT22;45702;52.982;6.658;2023-10-08T00:06:21;14.10;99.90
58865;DHT22;45702;52.982;6.658;2023-10-08T00:08:47;14.10;99.90
58865;DHT22;45702;52.982;6.658;2023-10-08T00:11:13;14.10;99.90
58865;DHT22;45702;52.982;6.658;2023-10-08T00:13:42;14.10;99.90
58865;DHT22;45702;52.982;6.658;2023-10-08T00:16:10;14.10;99.90
58865;DHT22;45702;52.982;6.658;2023-10-08T00:18:37;14.10;99.90
58865;DHT22;45702;52.982;6.658;2023-10-08T00:21:06;14.10;99.90
58865;DHT22;45702;52.982;6.658;2023-10-08T00:23:36;14.10;99.90
58865;DHT22;45702;52.982;6.658;2023-10-08T00:26:05;14.10;99.90
58865;DHT22;45702;52.982;6.658;2023-10-08T00:28:31;14.10;99.90
58865;DHT22;45702;52.982;6.658;2023-10-08T00:30:58;14.10;99.90
58865;DHT22;45702;52.982;6.658;2023-10-08T00:33:31;14.00;99.90
58865;DHT22;45702;52.982;6.658;2023-10-08T00:35:57;14.00;99.90
58865;DHT22;45702;52.982;6.658;2023-10-08T00:38:23;14.00;99.90
58865;DHT22;45702;52.982;6.658;2023-10-08T00:40:51;14.00;99.90
58865;DHT22;45702;52.982;6.658;2023-10-08T00:43:33;14.00;99.90
58865;DHT22;45702;52.982;6.658;2023-10-08T00:46:04;14.00;99.90
58865;DHT22;45702;52.982;6.658;2023-10-08T00:48:31;14.00;99.90
58865;DHT22;45702;52.982;6.658;2023-10-08T00:51:04;13.90;99.90
58865;DHT22;45702;52.982;6.658;2023-10-08T00:54:01;13.90;99.90
58865;DHT22;45702;52.982;6.658;2023-10-08T00:56:46;13.90;99.90
58865;DHT22;45702;52.982;6.658;2023-10-08T00:59:12;13.90;99.90
58865;DHT22;45702;52.982;6.658;2023-10-08T01:01:39;13.90;99.90
58865;DHT22;45702;52.982;6.658;2023-10-08T01:04:05;13.80;99.90
58865;DHT22;45702;52.982;6.658;2023-10-08T01:06:38;13.80;99.90
58865;DHT22;45702;52.982;6.658;2023-10-08T01:09:05;13.80;99.90
58865;DHT22;45702;52.982;6.658;2023-10-08T01:11:44;13.80;99.90
58865;DHT22;45702;52.982;6.658;2023-10-08T01:14:16;13.70;99.90
58865;DHT22;45702;52.982;6.658;2023-10-08T01:16:47;13.70;99.90
58865;DHT22;45702;52.982;6.658;2023-10-08T01:19:18;13.70;99.90
58865;DHT22;45702;52.982;6.658;2023-10-08T01:21:45;13.70;99.90
58865;DHT22;45702;52.982;6.658;2023-10-08T01:24:11;13.70;99.90
58865;DHT22;45702;52.982;6.658;2023-10-08T01:26:42;13.70;99.90
58865;DHT22;45702;52.982;6.658;2023-10-08T01:29:12;13.70;99.90
58865;DHT22;45702;52.982;6.658;2023-10-08T01:31:48;13.70;99.90
58865;DHT22;45702;52.982;6.658;2023-10-08T01:34:14;13.70;99.90
58865;DHT22;45702;52.982;6.658;2023-10-08T01:36:42;13.70;99.90
58865;DHT22;45702;52.982;6.658;2023-10-08T01:39:11;13.70;99.90
58865;DHT22;45702;52.982;6.658;2023-10-08T01:41:45;13.70;99.90
58865;DHT22;45702;52.982;6.658;2023-10-08T01:44:12;13.70;99.90
58865;DHT22;45702;52.982;6.658;2023-10-08T01:46:38;13.70;99.90
58865;DHT22;45702;52.982;6.658;2023-10-08T01:49:06;13.70;99.90
58865;DHT22;45702;52.982;6.658;2023-10-08T01:51:40;13.70;99.90
58865;DHT22;45702;52.982;6.658;2023-10-08T01:54:15;13.70;99.90
58865;DHT22;45702;52.982;6.658;2023-10-08T01:56:43;13.70;99.90
58865;DHT22;45702;52.982;6.658;2023-10-08T01:59:15;13.70;99.90
58865;DHT22;45702;52.982;6.658;2023-10-08T02:01:42;13.70;99.90
58865;DHT22;45702;52.982;6.658;2023-10-08T02:04:09;13.70;99.90
58865;DHT22;45702;52.982;6.658;2023-10-08T02:06:37;13.70;99.90
58865;DHT22;45702;52.982;6.658;2023-10-08T02:09:05;13.70;99.90
58865;DHT22;45702;52.982;6.658;2023-10-08T02:11:47;13.70;99.90
58865;DHT22;45702;52.982;6.658;2023-10-08T02:14:20;13.70;99.90
58865;DHT22;45702;52.982;6.658;2023-10-08T02:16:46;13.70;99.90
58865;DHT22;45702;52.982;6.658;2023-10-08T02:19:13;13.70;99.90
58865;DHT22;45702;52.982;6.658;2023-10-08T02:21:39;13.70;99.90
58865;DHT22;45702;52.982;6.658;2023-10-08T02:24:06;13.70;99.90
58865;DHT22;45702;52.982;6.658;2023-10-08T02:26:37;13.70;99.90
58865;DHT22;45702;52.982;6.658;2023-10-08T02:29:03;13.70;99.90
58865;DHT22;45702;52.982;6.658;2023-10-08T02:31:40;13.70;99.90
58865;DHT22;45702;52.982;6.658;2023-10-08T02:34:06;13.60;99.90
58865;DHT22;45702;52.982;6.658;2023-10-08T02:36:35;13.60;99.90
58865;DHT22;45702;52.982;6.658;2023-10-08T02:39:05;13.60;99.90
58865;DHT22;45702;52.982;6.658;2023-10-08T02:41:39;13.60;99.90
58865;DHT22;45702;52.982;6.658;2023-10-08T02:44:08;13.60;99.90
58865;DHT22;45702;52.982;6.658;2023-10-08T02:46:39;13.60;99.90
58865;DHT22;45702;52.982;6.658;2023-10-08T02:49:07;13.60;99.90
58865;DHT22;45702;52.982;6.658;2023-10-08T02:51:37;13.60;99.90
58865;DHT22;45702;52.982;6.658;2023-10-08T02:54:04;13.60;99.90
58865;DHT22;45702;52.982;6.658;2023-10-08T02:56:32;13.60;99.90
58865;DHT22;45702;52.982;6.658;2023-10-08T02:58:59;13.60;99.90
58865;DHT22;45702;52.982;6.658;2023-10-08T03:01:26;13.60;99.90
58865;DHT22;45702;52.982;6.658;2023-10-08T03:03:52;13.60;99.90
58865;DHT22;45702;52.982;6.658;2023-10-08T03:06:29;13.60;99.90
58865;DHT22;45702;52.982;6.658;2023-10-08T03:08:58;13.60;99.90
58865;DHT22;45702;52.982;6.658;2023-10-08T03:11:29;13.60;99.90
58865;DHT22;45702;52.982;6.658;2023-10-08T03:13:57;13.60;99.90
58865;DHT22;45702;52.982;6.658;2023-10-08T03:16:22;13.60;99.90
58865;DHT22;45702;52.982;6.658;2023-10-08T03:18:54;13.60;99.90
58865;DHT22;45702;52.982;6.658;2023-10-08T03:21:22;13.60;99.90
58865;DHT22;45702;52.982;6.658;2023-10-08T03:24:04;13.60;99.90
58865;DHT22;45702;52.982;6.658;2023-10-08T03:26:38;13.60;99.90
58865;DHT22;45702;52.982;6.658;2023-10-08T03:29:05;13.60;99.90
58865;DHT22;45702;52.982;6.658;2023-10-08T03:31:34;13.60;99.90
58865;DHT22;45702;52.982;6.658;2023-10-08T03:34:13;13.60;99.90
58865;DHT22;45702;52.982;6.658;2023-10-08T03:36:44;13.60;99.90
58865;DHT22;45702;52.982;6.658;2023-10-08T03:39:16;13.60;99.90
58865;DHT22;45702;52.982;6.658;2023-10-08T03:41:46;13.60;99.90
58865;DHT22;45702;52.982;6.658;2023-10-08T03:44:24;13.70;99.90
58865;DHT22;45702;52.982;6.658;2023-10-08T03:46:50;13.60;99.90
58865;DHT22;45702;52.982;6.658;2023-10-08T03:49:17;13.60;99.90
58865;DHT22;45702;52.982;6.658;2023-10-08T03:51:46;13.70;99.90
58865;DHT22;45702;52.982;6.658;2023-10-08T03:54:14;13.60;99.90
58865;DHT22;45702;52.982;6.658;2023-10-08T03:56:55;13.60;99.90
58865;DHT22;45702;52.982;6.658;2023-10-08T03:59:21;13.60;99.90
58865;DHT22;45702;52.982;6.658;2023-10-08T04:02:01;13.60;99.90
58865;DHT22;45702;52.982;6.658;2023-10-08T04:04:43;13.60;99.90
58865;DHT22;45702;52.982;6.658;2023-10-08T04:07:20;13.60;99.90
58865;DHT22;45702;52.982;6.658;2023-10-08T04:09:53;13.60;99.90
58865;DHT22;45702;52.982;6.658;2023-10-08T04:12:31;13.60;99.90
58865;DHT22;45702;52.982;6.658;2023-10-08T04:15:04;13.60;99.90
58865;DHT22;45702;52.982;6.658;2023-10-08T04:17:34;13.60;99.90
58865;DHT22;45702;52.982;6.658;2023-10-08T04:20:14;13.60;99.90
58865;DHT22;45702;52.982;6.658;2023-10-08T04:22:59;13.60;99.90
58865;DHT22;45702;52.982;6.658;2023-10-08T04:25:30;13.50;99.90
58865;DHT22;45702;52.982;6.658;2023-10-08T04:27:59;13.50;99.90
58865;DHT22;45702;52.982;6.658;2023-10-08T04:30:35;13.50;99.90
58865;DHT22;45702;52.982;6.658;2023-10-08T04:33:03;13.60;99.90
58865;DHT22;45702;52.982;6.658;2023-10-08T04:35:37;13.50;99.90
58865;DHT22;45702;52.982;6.658;2023-10-08T04:38:08;13.60;99.90
58865;DHT22;45702;52.982;6.658;2023-10-08T04:40:36;13.50;99.90
58865;DHT22;45702;52.982;6.658;2023-10-08T04:43:15;13.50;99.90
58865;DHT22;45702;52.982;6.658;2023-10-08T04:45:41;13.50;99.90
58865;DHT22;45702;52.982;6.658;2023-10-08T04:48:07;13.50;99.90
58865;DHT22;45702;52.982;6.658;2023-10-08T04:50:38;13.50;99.90
58865;DHT22;45702;52.982;6.658;2023-10-08T04:53:09;13.50;99.90
58865;DHT22;45702;52.982;6.658;2023-10-08T04:55:35;13.50;99.90
58865;DHT22;45702;52.982;6.658;2023-10-08T04:58:07;13.50;99.90
58865;DHT22;45702;52.982;6.658;2023-10-08T05:00:45;13.50;99.90
58865;DHT22;45702;52.982;6.658;2023-10-08T05:03:20;13.50;99.90
58865;DHT22;45702;52.982;6.658;2023-10-08T05:05:49;13.50;99.90
58865;DHT22;45702;52.982;6.658;2023-10-08T05:08:28;13.50;99.90
58865;DHT22;45702;52.982;6.658;2023-10-08T05:10:58;13.50;99.90
58865;DHT22;45702;52.982;6.658;2023-10-08T05:13:40;13.50;99.90
58865;DHT22;45702;52.982;6.658;2023-10-08T05:16:22;13.50;99.90
58865;DHT22;45702;52.982;6.658;2023-10-08T05:19:06;13.50;99.90
58865;DHT22;45702;52.982;6.658;2023-10-08T05:21:39;13.50;99.90
58865;DHT22;45702;52.982;6.658;2023-10-08T05:24:18;13.50;99.90
58865;DHT22;45702;52.982;6.658;2023-10-08T05:26:53;13.50;99.90
58865;DHT22;45702;52.982;6.658;2023-10-08T05:29:38;13.50;99.90
58865;DHT22;45702;52.982;6.658;2023-10-08T05:32:39;13.50;99.90
58865;DHT22;45702;52.982;6.658;2023-10-08T05:35:23;13.50;99.90
58865;DHT22;45702;52.982;6.658;2023-10-08T05:38:08;13.50;99.90
58865;DHT22;45702;52.982;6.658;2023-10-08T05:41:03;13.50;99.90
58865;DHT22;45702;52.982;6.658;2023-10-08T05:43:37;13.50;99.90
58865;DHT22;45702;52.982;6.658;2023-10-08T05:46:06;13.50;99.90
58865;DHT22;45702;52.982;6.658;2023-10-08T05:48:50;13.50;99.90
58865;DHT22;45702;52.982;6.658;2023-10-08T05:51:38;13.40;99.90
58865;DHT22;45702;52.982;6.658;2023-10-08T05:57:01;13.40;99.90
58865;DHT22;45702;52.982;6.658;2023-10-08T05:59:54;13.40;99.90
58865;DHT22;45702;52.982;6.658;2023-10-08T06:02:30;13.40;99.90
58865;DHT22;45702;52.982;6.658;2023-10-08T06:07:51;13.40;99.90
58865;DHT22;45702;52.982;6.658;2023-10-08T06:13:12;13.40;99.90
58865;DHT22;45702;52.982;6.658;2023-10-08T06:16:10;13.40;99.90
58865;DHT22;45702;52.982;6.658;2023-10-08T06:18:56;13.40;99.90
58865;DHT22;45702;52.982;6.658;2023-10-08T06:21:21;13.40;99.90
58865;DHT22;45702;52.982;6.658;2023-10-08T06:23:47;13.40;99.90
58865;DHT22;45702;52.982;6.658;2023-10-08T06:26:13;13.40;99.90
58865;DHT22;45702;52.982;6.658;2023-10-08T06:28:43;13.40;99.90
58865;DHT22;45702;52.982;6.658;2023-10-08T06:31:10;13.50;99.90
58865;DHT22;45702;52.982;6.658;2023-10-08T06:33:43;13.50;99.90
58865;DHT22;45702;52.982;6.658;2023-10-08T06:36:09;13.50;99.90
58865;DHT22;45702;52.982;6.658;2023-10-08T06:38:39;13.50;99.90
58865;DHT22;45702;52.982;6.658;2023-10-08T06:41:07;13.50;99.90
58865;DHT22;45702;52.982;6.658;2023-10-08T06:43:39;13.50;99.90
58865;DHT22;45702;52.982;6.658;2023-10-08T06:46:09;13.50;99.90
58865;DHT22;45702;52.982;6.658;2023-10-08T06:48:39;13.50;99.90
58865;DHT22;45702;52.982;6.658;2023-10-08T06:51:09;13.50;99.90
58865;DHT22;45702;52.982;6.658;2023-10-08T06:53:44;13.60;99.90
58865;DHT22;45702;52.982;6.658;2023-10-08T06:56:11;13.60;99.90
58865;DHT22;45702;52.982;6.658;2023-10-08T06:58:38;13.70;99.90
58865;DHT22;45702;52.982;6.658;2023-10-08T07:01:04;13.60;99.90
58865;DHT22;45702;52.982;6.658;2023-10-08T07:03:31;13.70;99.90
58865;DHT22;45702;52.982;6.658;2023-10-08T07:05:58;13.70;99.90
58865;DHT22;45702;52.982;6.658;2023-10-08T07:08:35;13.70;99.90
58865;DHT22;45702;52.982;6.658;2023-10-08T07:11:02;13.70;99.90
58865;DHT22;45702;52.982;6.658;2023-10-08T07:13:33;13.70;99.90
58865;DHT22;45702;52.982;6.658;2023-10-08T07:16:01;13.80;99.90
58865;DHT22;45702;52.982;6.658;2023-10-08T07:18:29;13.80;99.90
58865;DHT22;45702;52.982;6.658;2023-10-08T07:20:58;13.80;99.90
58865;DHT22;45702;52.982;6.658;2023-10-08T07:23:28;13.90;99.90
58865;DHT22;45702;52.982;6.658;2023-10-08T07:25:55;13.90;99.90
58865;DHT22;45702;52.982;6.658;2023-10-08T07:32:23;14.00;99.90
58865;DHT22;45702;52.982;6.658;2023-10-08T07:34:50;14.00;99.90
58865;DHT22;45702;52.982;6.658;2023-10-08T07:37:23;14.10;99.90
58865;DHT22;45702;52.982;6.658;2023-10-08T07:39:48;14.10;99.90
58865;DHT22;45702;52.982;6.658;2023-10-08T07:42:15;14.10;99.90
58865;DHT22;45702;52.982;6.658;2023-10-08T07:44:40;14.20;99.90
58865;DHT22;45702;52.982;6.658;2023-10-08T07:47:07;14.20;99.90
58865;DHT22;45702;52.982;6.658;2023-10-08T07:49:38;14.20;99.90
58865;DHT22;45702;52.982;6.658;2023-10-08T07:52:04;14.30;99.90
58865;DHT22;45702;52.982;6.658;2023-10-08T07:54:30;14.30;99.90
58865;DHT22;45702;52.982;6.658;2023-10-08T07:57:00;14.30;99.90
58865;DHT22;45702;52.982;6.658;2023-10-08T07:59:41;14.40;99.90
58865;DHT22;45702;52.982;6.658;2023-10-08T08:02:08;14.40;99.90
58865;DHT22;45702;52.982;6.658;2023-10-08T08:04:48;14.40;99.90
58865;DHT22;45702;52.982;6.658;2023-10-08T08:07:16;14.50;99.90
58865;DHT22;45702;52.982;6.658;2023-10-08T08:09:43;14.50;99.90
58865;DHT22;45702;52.982;6.658;2023-10-08T08:12:29;14.50;99.90
58865;DHT22;45702;52.982;6.658;2023-10-08T08:14:58;14.60;99.90
58865;DHT22;45702;52.982;6.658;2023-10-08T08:17:24;14.50;99.90
58865;DHT22;45702;52.982;6.658;2023-10-08T08:19:51;14.50;99.90
58865;DHT22;45702;52.982;6.658;2023-10-08T08:22:19;14.50;99.90
58865;DHT22;45702;52.982;6.658;2023-10-08T08:24:52;14.50;99.90
58865;DHT22;45702;52.982;6.658;2023-10-08T08:27:41;14.50;99.90
58865;DHT22;45702;52.982;6.658;2023-10-08T08:30:10;14.40;99.90
58865;DHT22;45702;52.982;6.658;2023-10-08T08:32:39;14.40;99.90
58865;DHT22;45702;52.982;6.658;2023-10-08T08:35:09;14.40;99.90
58865;DHT22;45702;52.982;6.658;2023-10-08T08:37:36;14.40;99.90
58865;DHT22;45702;52.982;6.658;2023-10-08T08:40:04;14.30;99.90
58865;DHT22;45702;52.982;6.658;2023-10-08T08:42:51;14.40;99.90
58865;DHT22;45702;52.982;6.658;2023-10-08T08:45:24;14.40;99.90
58865;DHT22;45702;52.982;6.658;2023-10-08T08:47:50;14.40;99.90
58865;DHT22;45702;52.982;6.658;2023-10-08T08:50:17;14.50;99.90
58865;DHT22;45702;52.982;6.658;2023-10-08T08:52:45;14.60;99.90
58865;DHT22;45702;52.982;6.658;2023-10-08T08:55:13;14.60;99.90
58865;DHT22;45702;52.982;6.658;2023-10-08T08:57:52;14.60;99.90
58865;DHT22;45702;52.982;6.658;2023-10-08T09:00:40;14.60;99.90
58865;DHT22;45702;52.982;6.658;2023-10-08T09:03:06;14.70;99.90
58865;DHT22;45702;52.982;6.658;2023-10-08T09:05:51;14.70;99.90
58865;DHT22;45702;52.982;6.658;2023-10-08T09:08:22;14.80;99.90
58865;DHT22;45702;52.982;6.658;2023-10-08T09:16:07;15.00;99.90
58865;DHT22;45702;52.982;6.658;2023-10-08T09:18:35;15.10;99.90
58865;DHT22;45702;52.982;6.658;2023-10-08T09:21:19;15.10;99.90
58865;DHT22;45702;52.982;6.658;2023-10-08T09:23:53;15.10;99.90
58865;DHT22;45702;52.982;6.658;2023-10-08T09:26:23;15.10;99.90
58865;DHT22;45702;52.982;6.658;2023-10-08T09:28:51;15.20;99.90
58865;DHT22;45702;52.982;6.658;2023-10-08T09:31:29;15.20;99.90
58865;DHT22;45702;52.982;6.658;2023-10-08T09:34:03;15.30;99.90
58865;DHT22;45702;52.982;6.658;2023-10-08T09:36:31;15.40;99.90
58865;DHT22;45702;52.982;6.658;2023-10-08T09:39:01;15.40;99.90
58865;DHT22;45702;52.982;6.658;2023-10-08T09:41:32;15.50;99.90
58865;DHT22;45702;52.982;6.658;2023-10-08T09:44:01;15.50;99.90
58865;DHT22;45702;52.982;6.658;2023-10-08T09:46:31;15.60;99.90
58865;DHT22;45702;52.982;6.658;2023-10-08T09:49:02;15.70;99.90
58865;DHT22;45702;52.982;6.658;2023-10-08T09:51:33;15.70;99.90
58865;DHT22;45702;52.982;6.658;2023-10-08T09:54:21;15.80;99.90
58865;DHT22;45702;52.982;6.658;2023-10-08T09:56:47;16.10;99.90
58865;DHT22;45702;52.982;6.658;2023-10-08T09:59:14;16.20;99.90
58865;DHT22;45702;52.982;6.658;2023-10-08T10:01:41;16.30;99.90
58865;DHT22;45702;52.982;6.658;2023-10-08T10:04:11;16.40;99.90
58865;DHT22;45702;52.982;6.658;2023-10-08T10:06:37;16.50;99.90
58865;DHT22;45702;52.982;6.658;2023-10-08T10:09:05;16.60;99.90
58865;DHT22;45702;52.982;6.658;2023-10-08T10:11:47;16.70;99.90
58865;DHT22;45702;52.982;6.658;2023-10-08T10:14:14;16.70;99.90
58865;DHT22;45702;52.982;6.658;2023-10-08T10:16:41;16.70;99.90
58865;DHT22;45702;52.982;6.658;2023-10-08T10:19:17;16.80;99.90
58865;DHT22;45702;52.982;6.658;2023-10-08T10:21:45;16.90;99.90
58865;DHT22;45702;52.982;6.658;2023-10-08T10:24:32;16.90;99.90
58865;DHT22;45702;52.982;6.658;2023-10-08T10:27:16;17.00;99.90
58865;DHT22;45702;52.982;6.658;2023-10-08T10:29:43;17.10;99.90
58865;DHT22;45702;52.982;6.658;2023-10-08T10:32:14;17.10;99.90
58865;DHT22;45702;52.982;6.658;2023-10-08T10:34:44;17.10;99.90
58865;DHT22;45702;52.982;6.658;2023-10-08T10:37:13;17.10;99.90
58865;DHT22;45702;52.982;6.658;2023-10-08T10:39:55;17.10;99.90
58865;DHT22;45702;52.982;6.658;2023-10-08T10:42:21;17.00;99.90
58865;DHT22;45702;52.982;6.658;2023-10-08T10:44:49;17.00;99.90
58865;DHT22;45702;52.982;6.658;2023-10-08T10:47:16;17.00;99.90
58865;DHT22;45702;52.982;6.658;2023-10-08T10:49:49;17.10;99.90
58865;DHT22;45702;52.982;6.658;2023-10-08T10:52:27;17.30;99.90
58865;DHT22;45702;52.982;6.658;2023-10-08T10:55:19;17.50;99.90
58865;DHT22;45702;52.982;6.658;2023-10-08T10:57:56;17.50;99.90
58865;DHT22;45702;52.982;6.658;2023-10-08T11:00:29;17.60;99.90
58865;DHT22;45702;52.982;6.658;2023-10-08T11:02:59;17.70;99.90
58865;DHT22;45702;52.982;6.658;2023-10-08T11:05:32;17.70;99.90
58865;DHT22;45702;52.982;6.658;2023-10-08T11:08:03;17.90;99.90
58865;DHT22;45702;52.982;6.658;2023-10-08T11:10:36;18.10;99.90
58865;DHT22;45702;52.982;6.658;2023-10-08T11:13:05;18.20;99.90
58865;DHT22;45702;52.982;6.658;2023-10-08T11:15:43;18.30;99.90
58865;DHT22;45702;52.982;6.658;2023-10-08T11:18:16;18.40;98.50
58865;DHT22;45702;52.982;6.658;2023-10-08T11:20:42;18.50;98.50
58865;DHT22;45702;52.982;6.658;2023-10-08T11:23:37;18.60;94.70
58865;DHT22;45702;52.982;6.658;2023-10-08T11:26:05;18.60;94.20
58865;DHT22;45702;52.982;6.658;2023-10-08T11:28:31;18.60;94.40
58865;DHT22;45702;52.982;6.658;2023-10-08T11:31:05;18.60;93.10
58865;DHT22;45702;52.982;6.658;2023-10-08T11:33:39;18.60;93.40
58865;DHT22;45702;52.982;6.658;2023-10-08T11:36:07;18.60;94.80
58865;DHT22;45702;52.982;6.658;2023-10-08T11:38:46;18.50;94.50
58865;DHT22;45702;52.982;6.658;2023-10-08T11:41:17;18.40;87.10
58865;DHT22;45702;52.982;6.658;2023-10-08T11:43:54;18.50;92.20
58865;DHT22;45702;52.982;6.658;2023-10-08T11:46:30;18.40;90.60
58865;DHT22;45702;52.982;6.658;2023-10-08T11:49:04;18.30;91.20
58865;DHT22;45702;52.982;6.658;2023-10-08T11:51:36;18.30;90.50
58865;DHT22;45702;52.982;6.658;2023-10-08T11:54:03;18.40;90.50
58865;DHT22;45702;52.982;6.658;2023-10-08T11:56:32;18.40;90.20
58865;DHT22;45702;52.982;6.658;2023-10-08T11:59:01;18.40;85.20
58865;DHT22;45702;52.982;6.658;2023-10-08T12:01:27;18.20;84.50
58865;DHT22;45702;52.982;6.658;2023-10-08T12:03:55;18.10;83.70
58865;DHT22;45702;52.982;6.658;2023-10-08T12:06:25;18.10;84.90
58865;DHT22;45702;52.982;6.658;2023-10-08T12:08:55;18.10;83.30
58865;DHT22;45702;52.982;6.658;2023-10-08T12:11:25;18.10;85.90
58865;DHT22;45702;52.982;6.658;2023-10-08T12:13:57;18.20;88.00
58865;DHT22;45702;52.982;6.658;2023-10-08T12:16:25;18.30;86.30
58865;DHT22;45702;52.982;6.658;2023-10-08T12:18:56;18.40;86.90
58865;DHT22;45702;52.982;6.658;2023-10-08T12:21:28;18.50;87.30
58865;DHT22;45702;52.982;6.658;2023-10-08T12:23:57;18.50;84.20
58865;DHT22;45702;52.982;6.658;2023-10-08T12:26:24;18.50;83.50
58865;DHT22;45702;52.982;6.658;2023-10-08T12:28:50;18.40;83.60
58865;DHT22;45702;52.982;6.658;2023-10-08T12:31:17;18.40;84.50
58865;DHT22;45702;52.982;6.658;2023-10-08T12:33:48;18.40;84.60
58865;DHT22;45702;52.982;6.658;2023-10-08T12:36:14;18.30;83.60
58865;DHT22;45702;52.982;6.658;2023-10-08T12:38:43;18.30;84.20
58865;DHT22;45702;52.982;6.658;2023-10-08T12:41:10;18.30;83.40
58865;DHT22;45702;52.982;6.658;2023-10-08T12:43:48;18.20;84.20
58865;DHT22;45702;52.982;6.658;2023-10-08T12:46:19;18.10;82.40
58865;DHT22;45702;52.982;6.658;2023-10-08T12:48:51;18.10;84.20
58865;DHT22;45702;52.982;6.658;2023-10-08T12:51:26;18.10;83.20
58865;DHT22;45702;52.982;6.658;2023-10-08T12:53:53;18.20;84.00
58865;DHT22;45702;52.982;6.658;2023-10-08T12:56:30;18.20;84.00
58865;DHT22;45702;52.982;6.658;2023-10-08T12:59:05;18.20;84.80
58865;DHT22;45702;52.982;6.658;2023-10-08T13:01:36;18.30;86.30
58865;DHT22;45702;52.982;6.658;2023-10-08T13:04:06;18.40;86.30
58865;DHT22;45702;52.982;6.658;2023-10-08T13:06:41;18.40;86.00
58865;DHT22;45702;52.982;6.658;2023-10-08T13:09:10;18.40;86.80
58865;DHT22;45702;52.982;6.658;2023-10-08T13:11:38;18.40;86.20
58865;DHT22;45702;52.982;6.658;2023-10-08T13:14:05;18.30;85.70
58865;DHT22;45702;52.982;6.658;2023-10-08T13:16:31;18.30;86.10
58865;DHT22;45702;52.982;6.658;2023-10-08T13:18:58;18.30;86.60
58865;DHT22;45702;52.982;6.658;2023-10-08T13:21:25;18.40;85.60
58865;DHT22;45702;52.982;6.658;2023-10-08T13:23:51;18.40;86.50
58865;DHT22;45702;52.982;6.658;2023-10-08T13:26:17;18.40;86.40
58865;DHT22;45702;52.982;6.658;2023-10-08T13:28:43;18.40;84.30
58865;DHT22;45702;52.982;6.658;2023-10-08T13:31:10;18.30;82.80
58865;DHT22;45702;52.982;6.658;2023-10-08T13:33:42;18.20;84.40
58865;DHT22;45702;52.982;6.658;2023-10-08T13:36:10;18.10;84.20
58865;DHT22;45702;52.982;6.658;2023-10-08T13:38:39;17.90;83.80
58865;DHT22;45702;52.982;6.658;2023-10-08T13:41:07;17.90;84.80
58865;DHT22;45702;52.982;6.658;2023-10-08T13:43:45;17.80;86.70
58865;DHT22;45702;52.982;6.658;2023-10-08T13:46:17;17.70;86.50
58865;DHT22;45702;52.982;6.658;2023-10-08T13:48:52;17.70;86.00
58865;DHT22;45702;52.982;6.658;2023-10-08T13:51:30;17.70;87.30
58865;DHT22;45702;52.982;6.658;2023-10-08T13:54:03;17.60;89.20
58865;DHT22;45702;52.982;6.658;2023-10-08T13:56:33;17.60;89.80
58865;DHT22;45702;52.982;6.658;2023-10-08T13:59:00;17.60;89.50
58865;DHT22;45702;52.982;6.658;2023-10-08T14:01:45;17.50;89.40
58865;DHT22;45702;52.982;6.658;2023-10-08T14:04:12;17.50;90.60
58865;DHT22;45702;52.982;6.658;2023-10-08T14:06:42;17.50;90.90
58865;DHT22;45702;52.982;6.658;2023-10-08T14:09:13;17.50;91.70
58865;DHT22;45702;52.982;6.658;2023-10-08T14:11:46;17.50;92.40
58865;DHT22;45702;52.982;6.658;2023-10-08T14:14:12;17.60;92.90
58865;DHT22;45702;52.982;6.658;2023-10-08T14:16:41;17.60;93.00
58865;DHT22;45702;52.982;6.658;2023-10-08T14:19:13;17.50;92.90
58865;DHT22;45702;52.982;6.658;2023-10-08T14:21:47;17.60;93.30
58865;DHT22;45702;52.982;6.658;2023-10-08T14:24:37;17.50;93.30
58865;DHT22;45702;52.982;6.658;2023-10-08T14:27:04;17.50;93.10
58865;DHT22;45702;52.982;6.658;2023-10-08T14:29:39;17.40;92.70
58865;DHT22;45702;52.982;6.658;2023-10-08T14:32:15;17.40;92.90
58865;DHT22;45702;52.982;6.658;2023-10-08T14:34:41;17.30;93.50
58865;DHT22;45702;52.982;6.658;2023-10-08T14:37:13;17.30;93.80
58865;DHT22;45702;52.982;6.658;2023-10-08T14:39:57;17.30;94.10
58865;DHT22;45702;52.982;6.658;2023-10-08T14:42:42;17.20;94.60
58865;DHT22;45702;52.982;6.658;2023-10-08T14:45:32;17.20;94.50
58865;DHT22;45702;52.982;6.658;2023-10-08T14:48:01;17.20;95.00
58865;DHT22;45702;52.982;6.658;2023-10-08T14:50:27;17.20;95.10
58865;DHT22;45702;52.982;6.658;2023-10-08T14:52:54;17.10;95.00
58865;DHT22;45702;52.982;6.658;2023-10-08T14:55:26;17.00;95.00
58865;DHT22;45702;52.982;6.658;2023-10-08T14:57:52;17.00;95.30
58865;DHT22;45702;52.982;6.658;2023-10-08T15:00:21;17.00;96.00
58865;DHT22;45702;52.982;6.658;2023-10-08T15:02:54;17.00;97.10
58865;DHT22;45702;52.982;6.658;2023-10-08T15:05:21;16.90;97.20
58865;DHT22;45702;52.982;6.658;2023-10-08T15:07:50;16.90;97.10
58865;DHT22;45702;52.982;6.658;2023-10-08T15:10:20;16.90;97.40
58865;DHT22;45702;52.982;6.658;2023-10-08T15:12:49;16.90;98.10
58865;DHT22;45702;52.982;6.658;2023-10-08T15:15:17;16.90;98.50
58865;DHT22;45702;52.982;6.658;2023-10-08T15:17:45;16.90;98.80
58865;DHT22;45702;52.982;6.658;2023-10-08T15:20:13;16.90;98.90
58865;DHT22;45702;52.982;6.658;2023-10-08T15:22:47;16.90;98.80
58865;DHT22;45702;52.982;6.658;2023-10-08T15:25:14;16.90;98.40
58865;DHT22;45702;52.982;6.658;2023-10-08T15:27:42;16.90;98.70
58865;DHT22;45702;52.982;6.658;2023-10-08T15:30:14;16.80;98.70
58865;DHT22;45702;52.982;6.658;2023-10-08T15:32:48;16.80;98.80
58865;DHT22;45702;52.982;6.658;2023-10-08T15:35:15;16.80;99.00
58865;DHT22;45702;52.982;6.658;2023-10-08T15:37:45;16.80;99.00
58865;DHT22;45702;52.982;6.658;2023-10-08T15:40:11;16.80;99.50
58865;DHT22;45702;52.982;6.658;2023-10-08T15:42:47;16.70;99.70
58865;DHT22;45702;52.982;6.658;2023-10-08T15:45:13;16.70;99.90
58865;DHT22;45702;52.982;6.658;2023-10-08T15:47:39;16.70;99.90
58865;DHT22;45702;52.982;6.658;2023-10-08T15:50:05;16.60;99.80
58865;DHT22;45702;52.982;6.658;2023-10-08T15:52:36;16.60;99.90
58865;DHT22;45702;52.982;6.658;2023-10-08T15:55:02;16.60;99.90
58865;DHT22;45702;52.982;6.658;2023-10-08T15:57:29;16.60;99.90
58865;DHT22;45702;52.982;6.658;2023-10-08T15:59:55;16.50;99.90
58865;DHT22;45702;52.982;6.658;2023-10-08T16:02:21;16.40;99.90
58865;DHT22;45702;52.982;6.658;2023-10-08T16:04:49;16.50;99.90
58865;DHT22;45702;52.982;6.658;2023-10-08T16:07:15;16.40;99.90
58865;DHT22;45702;52.982;6.658;2023-10-08T16:09:41;16.40;99.90
58865;DHT22;45702;52.982;6.658;2023-10-08T16:12:07;16.30;99.90
58865;DHT22;45702;52.982;6.658;2023-10-08T16:14:32;16.30;99.90